Time;durP1;ratioP1;P1;durP2;ratioP2;P2;SDS_P1;SDS_P2;PMS_P1;PMS_P2;Temp;Humidity;BMP_temperature;BMP_pressure;BME280_temperature;BME280_humidity;BME280_pressure;Samples;Min_cycle;Max_cycle;Signal;HPM_P1;HPM_P2
2023/04/16 00:01:58;;;;;;;14.48;9.93;;;;;;;;;;5126973;27;20038;-63
2023/04/16 00:04:24;;;;;;;13.75;9.70;;;;;;;;;;5130058;27;20027;-68
2023/04/16 00:06:49;;;;;;;13.38;9.07;;;;;;;;;;5130135;27;20027;-63
2023/04/16 00:09:15;;;;;;;13.68;9.48;;;;;;;;;;5150552;27;20030;-71
2023/04/16 00:11:40;;;;;;;15.52;10.32;;;;;;;;;;5149455;27;20029;-63
2023/04/16 00:14:05;;;;;;;15.43;9.27;;;;;;;;;;5146869;27;20034;-63
2023/04/16 00:16:31;;;;;;;12.07;9.02;;;;;;;;;;5132355;27;20029;-63
2023/04/16 00:18:57;;;;;;;12.60;9.27;;;;;;;;;;5148927;27;20064;-63
2023/04/16 00:21:22;;;;;;;13.55;8.77;;;;;;;;;;5149926;27;20019;-63
2023/04/16 00:23:48;;;;;;;13.18;8.85;;;;;;;;;;5149698;27;20480;-63
2023/04/16 00:26:13;;;;;;;13.05;9.60;;;;;;;;;;5149365;27;20023;-69
2023/04/16 00:28:39;;;;;;;11.13;7.95;;;;;;;;;;5149949;27;20031;-65
2023/04/16 00:31:04;;;;;;;13.05;8.98;;;;;;;;;;5149585;27;20042;-73
2023/04/16 00:33:30;;;;;;;12.75;8.63;;;;;;;;;;5140131;27;20042;-65
2023/04/16 00:35:55;;;;;;;11.27;8.70;;;;;;;;;;5143006;27;20057;-63
2023/04/16 00:38:21;;;;;;;10.43;7.78;;;;;;;;;;5149557;27;20018;-64
2023/04/16 00:40:46;;;;;;;11.35;7.70;;;;;;;;;;5149075;27;20027;-63
2023/04/16 00:43:23;;;;;;;12.02;7.68;;;;;;;;;;5149564;27;20022;-63
2023/04/16 00:45:49;;;;;;;12.00;8.40;;;;;;;;;;5149222;27;20027;-64
2023/04/16 00:48:15;;;;;;;11.38;8.13;;;;;;;;;;5149637;27;20076;-64
2023/04/16 00:50:41;;;;;;;10.02;7.20;;;;;;;;;;5149308;27;20098;-68
2023/04/16 00:53:06;;;;;;;10.57;7.78;;;;;;;;;;5141960;27;20039;-63
2023/04/16 00:55:32;;;;;;;10.63;7.97;;;;;;;;;;5128479;27;20027;-63
2023/04/16 00:57:57;;;;;;;10.63;7.63;;;;;;;;;;5128559;27;20039;-64
2023/04/16 01:00:23;;;;;;;10.95;8.40;;;;;;;;;;5133289;27;20026;-72
2023/04/16 01:02:48;;;;;;;12.48;7.68;;;;;;;;;;5128415;27;20045;-65
2023/04/16 01:05:13;;;;;;;9.85;7.50;;;;;;;;;;5128604;27;20505;-72
2023/04/16 01:07:39;;;;;;;11.45;8.40;;;;;;;;;;5128662;27;20031;-63
2023/04/16 01:10:05;;;;;;;10.05;7.88;;;;;;;;;;5128739;27;20023;-68
2023/04/16 01:12:31;;;;;;;10.50;7.57;;;;;;;;;;5129197;27;20023;-63
2023/04/16 01:14:56;;;;;;;11.85;7.70;;;;;;;;;;5128331;27;20023;-68
2023/04/16 01:17:22;;;;;;;9.93;6.97;;;;;;;;;;5128687;27;20106;-65
2023/04/16 01:19:47;;;;;;;8.55;6.90;;;;;;;;;;5128139;27;20066;-70
2023/04/16 01:22:13;;;;;;;9.35;7.10;;;;;;;;;;5128745;27;20051;-63
2023/04/16 01:24:39;;;;;;;9.60;6.88;;;;;;;;;;5128504;27;20331;-63
2023/04/16 01:27:05;;;;;;;10.68;7.30;;;;;;;;;;5139212;27;20081;-64
2023/04/16 01:29:30;;;;;;;10.18;6.90;;;;;;;;;;5150256;27;20484;-67
2023/04/16 01:31:56;;;;;;;9.57;6.82;;;;;;;;;;5145825;27;20049;-65
2023/04/16 01:34:21;;;;;;;9.13;7.07;;;;;;;;;;5145976;27;20102;-69
2023/04/16 01:36:47;;;;;;;8.93;6.32;;;;;;;;;;5131993;27;20080;-63
2023/04/16 01:39:14;;;;;;;8.85;6.57;;;;;;;;;;5132666;27;20031;-64
2023/04/16 01:41:40;;;;;;;8.32;6.45;;;;;;;;;;5131697;27;20110;-63
2023/04/16 01:44:06;;;;;;;9.30;6.78;;;;;;;;;;5132611;27;20165;-63
2023/04/16 01:46:33;;;;;;;9.40;6.70;;;;;;;;;;5131750;27;20381;-63
2023/04/16 01:48:58;;;;;;;9.80;6.30;;;;;;;;;;5131557;27;20701;-69
2023/04/16 01:51:26;;;;;;;11.38;6.50;;;;;;;;;;5131915;27;20027;-73
2023/04/16 01:53:51;;;;;;;9.93;6.43;;;;;;;;;;5131135;27;20037;-72
2023/04/16 01:56:17;;;;;;;10.65;6.28;;;;;;;;;;5137149;27;20109;-69
2023/04/16 01:58:42;;;;;;;10.00;6.40;;;;;;;;;;5143344;27;20087;-68
2023/04/16 02:01:08;;;;;;;8.38;6.18;;;;;;;;;;5140615;27;20050;-67
2023/04/16 02:03:34;;;;;;;8.98;6.40;;;;;;;;;;5152645;27;20433;-63
2023/04/16 02:06:02;;;;;;;9.32;6.30;;;;;;;;;;5151811;27;20034;-64
2023/04/16 02:08:28;;;;;;;10.35;6.45;;;;;;;;;;5151975;27;20551;-63
2023/04/16 02:10:55;;;;;;;8.60;6.28;;;;;;;;;;5151445;27;20019;-63
2023/04/16 02:13:20;;;;;;;8.68;6.00;;;;;;;;;;5150713;27;20253;-69
2023/04/16 02:15:47;;;;;;;9.75;6.45;;;;;;;;;;5150881;27;20118;-64
2023/04/16 02:18:13;;;;;;;8.70;6.03;;;;;;;;;;5152108;27;20076;-63
2023/04/16 02:20:40;;;;;;;8.80;6.45;;;;;;;;;;5152153;27;20460;-65
2023/04/16 02:23:06;;;;;;;11.10;7.00;;;;;;;;;;5129276;27;20156;-64
2023/04/16 02:25:31;;;;;;;9.48;6.10;;;;;;;;;;5131132;27;20517;-66
2023/04/16 02:27:57;;;;;;;9.02;5.57;;;;;;;;;;5130762;27;20808;-63
2023/04/16 02:30:24;;;;;;;12.52;6.35;;;;;;;;;;5133280;27;20019;-67
2023/04/16 02:32:49;;;;;;;8.88;6.40;;;;;;;;;;5141651;27;20476;-64
2023/04/16 02:35:15;;;;;;;8.32;6.05;;;;;;;;;;5148642;27;20031;-68
2023/04/16 02:37:40;;;;;;;7.95;6.10;;;;;;;;;;5130298;27;20513;-64
2023/04/16 02:40:06;;;;;;;7.93;6.32;;;;;;;;;;5131347;27;20050;-65
2023/04/16 02:42:31;;;;;;;7.20;5.72;;;;;;;;;;5130005;27;20068;-63
2023/04/16 02:44:57;;;;;;;8.55;6.30;;;;;;;;;;5136878;27;20116;-71
2023/04/16 02:47:22;;;;;;;7.50;6.00;;;;;;;;;;5151362;27;20045;-65
2023/04/16 02:49:48;;;;;;;7.40;5.75;;;;;;;;;;5150601;27;20019;-63
2023/04/16 02:52:13;;;;;;;8.48;6.03;;;;;;;;;;5151163;27;20034;-69
2023/04/16 02:54:38;;;;;;;7.78;5.65;;;;;;;;;;5151368;27;20019;-63
2023/04/16 02:57:04;;;;;;;7.97;5.70;;;;;;;;;;5130652;27;20508;-65
2023/04/16 02:59:30;;;;;;;8.63;5.78;;;;;;;;;;5128530;27;20031;-64
2023/04/16 03:01:55;;;;;;;7.70;5.50;;;;;;;;;;5129271;27;20094;-63
2023/04/16 03:04:21;;;;;;;7.60;6.20;;;;;;;;;;5129184;27;20027;-65
2023/04/16 03:06:46;;;;;;;7.93;5.65;;;;;;;;;;5129236;27;20460;-64
2023/04/16 03:09:12;;;;;;;8.63;6.05;;;;;;;;;;5129204;27;20469;-65
2023/04/16 03:11:38;;;;;;;7.80;5.45;;;;;;;;;;5129995;27;20034;-63
2023/04/16 03:14:03;;;;;;;7.72;5.45;;;;;;;;;;5129018;27;20442;-64
2023/04/16 03:16:29;;;;;;;6.85;5.00;;;;;;;;;;5129019;27;20039;-64
2023/04/16 03:18:54;;;;;;;7.90;5.50;;;;;;;;;;5128813;27;20538;-63
2023/04/16 03:21:20;;;;;;;7.90;5.50;;;;;;;;;;5128676;27;20482;-65
2023/04/16 03:23:45;;;;;;;7.28;5.35;;;;;;;;;;5129299;27;20055;-63
2023/04/16 03:26:11;;;;;;;7.38;6.05;;;;;;;;;;5128946;27;20033;-66
2023/04/16 03:28:36;;;;;;;6.05;4.95;;;;;;;;;;5130416;27;20127;-63
2023/04/16 03:31:02;;;;;;;8.80;5.80;;;;;;;;;;5141610;27;20039;-64
2023/04/16 03:33:27;;;;;;;8.20;5.95;;;;;;;;;;5130945;27;20103;-63
2023/04/16 03:35:57;;;;;;;9.20;5.60;;;;;;;;;;5130042;27;20461;-63
2023/04/16 03:38:24;;;;;;;7.90;5.72;;;;;;;;;;5130053;27;20117;-63
2023/04/16 03:40:50;;;;;;;7.30;5.30;;;;;;;;;;5129729;27;20023;-62
2023/04/16 03:43:15;;;;;;;7.38;5.45;;;;;;;;;;5128126;27;20383;-63
2023/04/16 03:45:45;;;;;;;6.30;4.90;;;;;;;;;;5129462;27;20442;-70
2023/04/16 03:48:10;;;;;;;8.05;5.88;;;;;;;;;;5129595;27;20035;-64
2023/04/16 03:50:36;;;;;;;8.23;5.70;;;;;;;;;;5129949;27;20026;-65
2023/04/16 03:53:01;;;;;;;7.60;5.18;;;;;;;;;;5128270;27;20562;-68
2023/04/16 03:55:27;;;;;;;7.47;5.65;;;;;;;;;;5129676;27;20856;-63
2023/04/16 03:57:52;;;;;;;6.93;5.43;;;;;;;;;;5129389;27;20107;-63
2023/04/16 04:00:18;;;;;;;7.90;5.50;;;;;;;;;;5128916;27;20156;-63
2023/04/16 04:02:43;;;;;;;7.30;5.95;;;;;;;;;;5129221;27;20035;-70
2023/04/16 04:05:09;;;;;;;7.03;5.30;;;;;;;;;;5128176;27;20398;-63
2023/04/16 04:07:34;;;;;;;7.20;5.32;;;;;;;;;;5129450;27;20023;-63
2023/04/16 04:10:00;;;;;;;7.55;5.82;;;;;;;;;;5128779;27;20520;-71
2023/04/16 04:12:26;;;;;;;7.50;5.60;;;;;;;;;;5140348;27;20102;-72
2023/04/16 04:14:51;;;;;;;6.78;5.32;;;;;;;;;;5131179;27;20030;-65
2023/04/16 04:17:17;;;;;;;7.90;5.90;;;;;;;;;;5129196;27;20059;-69
2023/04/16 04:19:42;;;;;;;8.93;5.80;;;;;;;;;;5128249;27;20052;-69
2023/04/16 04:22:08;;;;;;;8.88;6.05;;;;;;;;;;5129675;27;20030;-64
2023/04/16 04:24:33;;;;;;;10.38;6.65;;;;;;;;;;5129119;27;20038;-63
2023/04/16 04:26:58;;;;;;;7.97;6.15;;;;;;;;;;5128693;27;20043;-68
2023/04/16 04:29:24;;;;;;;9.10;6.57;;;;;;;;;;5129366;27;20031;-64
2023/04/16 04:31:50;;;;;;;10.45;7.15;;;;;;;;;;5127522;27;20053;-70
2023/04/16 04:34:15;;;;;;;8.95;6.60;;;;;;;;;;5149713;27;20101;-68
2023/04/16 04:36:40;;;;;;;9.15;6.55;;;;;;;;;;5133176;27;20024;-67
2023/04/16 04:39:06;;;;;;;9.00;6.38;;;;;;;;;;5129131;27;20048;-64
2023/04/16 04:41:31;;;;;;;10.52;6.93;;;;;;;;;;5132237;27;20018;-73
2023/04/16 04:43:57;;;;;;;11.15;6.97;;;;;;;;;;5149381;27;20026;-71
2023/04/16 04:46:22;;;;;;;10.45;6.90;;;;;;;;;;5150404;27;20025;-71
2023/04/16 04:48:48;;;;;;;9.10;6.90;;;;;;;;;;5149226;27;20464;-64
2023/04/16 04:51:13;;;;;;;11.60;7.57;;;;;;;;;;5150225;27;20092;-65
2023/04/16 04:53:38;;;;;;;10.55;7.32;;;;;;;;;;5149830;27;20026;-64
2023/04/16 04:56:04;;;;;;;10.35;7.45;;;;;;;;;;5146207;27;20499;-67
2023/04/16 04:58:30;;;;;;;11.45;8.20;;;;;;;;;;5129163;27;20533;-67
2023/04/16 05:00:55;;;;;;;11.48;7.80;;;;;;;;;;5128741;27;20027;-69
2023/04/16 05:03:21;;;;;;;9.93;7.70;;;;;;;;;;5128522;27;20098;-65
2023/04/16 05:05:46;;;;;;;10.05;7.20;;;;;;;;;;5131919;27;20023;-72
2023/04/16 05:08:12;;;;;;;11.05;7.40;;;;;;;;;;5136536;27;20043;-67
2023/04/16 05:10:37;;;;;;;8.65;6.85;;;;;;;;;;5133233;27;20031;-64
2023/04/16 05:13:03;;;;;;;10.32;7.93;;;;;;;;;;5132363;27;20031;-65
2023/04/16 05:15:28;;;;;;;10.63;7.65;;;;;;;;;;5132725;27;20114;-71
2023/04/16 05:17:57;;;;;;;11.10;7.70;;;;;;;;;;5132171;27;20037;-63
2023/04/16 05:20:25;;;;;;;10.75;7.63;;;;;;;;;;5138642;27;20027;-68
2023/04/16 05:22:51;;;;;;;9.02;6.90;;;;;;;;;;5153380;27;20022;-63
2023/04/16 05:25:16;;;;;;;10.05;7.38;;;;;;;;;;5153672;27;20046;-69
2023/04/16 05:27:42;;;;;;;9.65;7.32;;;;;;;;;;5153164;27;20019;-63
2023/04/16 05:30:08;;;;;;;9.95;7.38;;;;;;;;;;5153120;27;20031;-64
2023/04/16 05:32:34;;;;;;;11.15;7.13;;;;;;;;;;5140893;27;20197;-64
2023/04/16 05:34:59;;;;;;;8.73;7.07;;;;;;;;;;5132069;27;20126;-63
2023/04/16 05:37:24;;;;;;;11.27;6.90;;;;;;;;;;5132436;27;20076;-64
2023/04/16 05:39:50;;;;;;;10.43;7.75;;;;;;;;;;5131925;27;20027;-63
2023/04/16 05:42:15;;;;;;;12.65;7.72;;;;;;;;;;5132091;27;20023;-67
2023/04/16 05:44:41;;;;;;;9.15;6.75;;;;;;;;;;5131800;27;20422;-66
2023/04/16 05:47:08;;;;;;;9.93;7.15;;;;;;;;;;5132459;27;20027;-71
2023/04/16 05:49:36;;;;;;;9.85;7.15;;;;;;;;;;5132227;27;20027;-72
2023/04/16 05:52:03;;;;;;;10.73;7.13;;;;;;;;;;5131416;27;20031;-64
2023/04/16 05:54:28;;;;;;;10.57;6.88;;;;;;;;;;5131845;27;20051;-71
2023/04/16 05:56:54;;;;;;;10.80;6.80;;;;;;;;;;5131793;27;20157;-71
2023/04/16 05:59:19;;;;;;;9.93;6.65;;;;;;;;;;5131590;27;20506;-72
2023/04/16 06:01:45;;;;;;;8.13;6.38;;;;;;;;;;5131491;27;20023;-67
2023/04/16 06:04:10;;;;;;;8.38;6.55;;;;;;;;;;5131979;27;21064;-68
2023/04/16 06:06:36;;;;;;;10.68;6.43;;;;;;;;;;5132088;27;20027;-72
2023/04/16 06:09:02;;;;;;;9.93;6.78;;;;;;;;;;5131090;27;20072;-64
2023/04/16 06:11:31;;;;;;;10.70;6.75;;;;;;;;;;5131616;27;20045;-71
2023/04/16 06:13:56;;;;;;;10.20;6.97;;;;;;;;;;5131034;27;20023;-64
2023/04/16 06:16:22;;;;;;;7.80;5.80;;;;;;;;;;5146973;27;20495;-65
2023/04/16 06:18:47;;;;;;;10.38;6.60;;;;;;;;;;5152258;27;20117;-66
2023/04/16 06:21:13;;;;;;;9.00;6.57;;;;;;;;;;5151432;27;20433;-63
2023/04/16 06:23:38;;;;;;;9.85;6.88;;;;;;;;;;5152269;27;20429;-68
2023/04/16 06:26:04;;;;;;;9.38;6.65;;;;;;;;;;5131525;27;20362;-63
2023/04/16 06:28:30;;;;;;;7.30;6.03;;;;;;;;;;5130963;27;20035;-72
2023/04/16 06:30:55;;;;;;;10.02;6.55;;;;;;;;;;5131133;27;20023;-64
2023/04/16 06:33:21;;;;;;;8.98;6.38;;;;;;;;;;5128732;27;20035;-64
2023/04/16 06:35:46;;;;;;;8.10;6.22;;;;;;;;;;5130853;27;20123;-64
2023/04/16 06:38:12;;;;;;;8.38;6.38;;;;;;;;;;5130896;27;20027;-71
2023/04/16 06:40:37;;;;;;;8.30;6.05;;;;;;;;;;5131950;27;20034;-65
2023/04/16 06:43:03;;;;;;;8.13;6.28;;;;;;;;;;5130490;27;20058;-68
2023/04/16 06:45:28;;;;;;;8.43;5.70;;;;;;;;;;5130888;27;20051;-64
2023/04/16 06:47:54;;;;;;;8.48;6.32;;;;;;;;;;5130453;27;20817;-64
2023/04/16 06:50:20;;;;;;;8.43;6.10;;;;;;;;;;5130703;27;20031;-66
2023/04/16 06:52:45;;;;;;;9.10;6.25;;;;;;;;;;5130318;27;20026;-69
2023/04/16 06:55:10;;;;;;;8.80;6.55;;;;;;;;;;5130584;27;20410;-64
2023/04/16 06:57:36;;;;;;;9.85;6.32;;;;;;;;;;5130864;27;20389;-67
2023/04/16 07:00:03;;;;;;;9.93;5.75;;;;;;;;;;5130238;27;20469;-73
2023/04/16 07:02:29;;;;;;;17.33;8.35;;;;;;;;;;5131051;27;20114;-64
2023/04/16 07:04:55;;;;;;;11.32;7.05;;;;;;;;;;5132450;27;20118;-68
2023/04/16 07:07:20;;;;;;;10.07;7.10;;;;;;;;;;5151101;27;20026;-65
2023/04/16 07:09:45;;;;;;;8.60;6.20;;;;;;;;;;5150907;27;20043;-65
2023/04/16 07:12:12;;;;;;;19.80;9.27;;;;;;;;;;5150725;27;20031;-72
2023/04/16 07:14:37;;;;;;;20.38;9.82;;;;;;;;;;5151665;27;20030;-72
2023/04/16 07:17:03;;;;;;;32.03;13.07;;;;;;;;;;5130088;27;20023;-71
2023/04/16 07:19:31;;;;;;;19.02;9.70;;;;;;;;;;5130038;27;20087;-70
2023/04/16 07:21:57;;;;;;;19.05;10.13;;;;;;;;;;5129897;27;20049;-69
2023/04/16 07:24:23;;;;;;;11.55;6.40;;;;;;;;;;5130293;27;20035;-73
2023/04/16 07:26:48;;;;;;;11.43;6.72;;;;;;;;;;5129437;27;20022;-73
2023/04/16 07:29:14;;;;;;;6.95;5.50;;;;;;;;;;5129625;27;20031;-67
2023/04/16 07:31:39;;;;;;;6.72;4.93;;;;;;;;;;5142889;27;20042;-70
2023/04/16 07:34:05;;;;;;;7.43;5.25;;;;;;;;;;5130360;27;20023;-71
2023/04/16 07:36:31;;;;;;;8.40;5.93;;;;;;;;;;5136656;27;20019;-64
2023/04/16 07:38:56;;;;;;;9.32;5.70;;;;;;;;;;5129941;27;20034;-69
2023/04/16 07:41:22;;;;;;;8.80;5.90;;;;;;;;;;5129632;27;20022;-72
2023/04/16 07:43:47;;;;;;;7.53;5.10;;;;;;;;;;5129423;27;20050;-63
2023/04/16 07:46:13;;;;;;;12.93;6.55;;;;;;;;;;5129713;27;20027;-65
2023/04/16 07:48:38;;;;;;;11.70;6.32;;;;;;;;;;5129869;27;20530;-70
2023/04/16 07:51:03;;;;;;;10.25;5.45;;;;;;;;;;5129485;27;20110;-70
2023/04/16 07:53:29;;;;;;;8.35;5.22;;;;;;;;;;5129731;27;20027;-67
2023/04/16 07:55:55;;;;;;;8.30;5.13;;;;;;;;;;5131477;27;20129;-66
2023/04/16 07:58:21;;;;;;;6.60;5.00;;;;;;;;;;5150388;27;20458;-68
2023/04/16 08:00:46;;;;;;;5.47;4.43;;;;;;;;;;5144092;27;20389;-71
2023/04/16 08:03:12;;;;;;;9.82;4.90;;;;;;;;;;5149656;27;20027;-72
2023/04/16 08:05:37;;;;;;;10.90;5.13;;;;;;;;;;5137664;27;20077;-64
2023/04/16 08:08:03;;;;;;;12.00;5.82;;;;;;;;;;5128609;27;20109;-63
2023/04/16 08:10:28;;;;;;;8.20;5.35;;;;;;;;;;5128642;27;20505;-71
2023/04/16 08:12:54;;;;;;;7.03;5.32;;;;;;;;;;5130660;27;20102;-67
2023/04/16 08:15:19;;;;;;;8.48;5.45;;;;;;;;;;5131903;27;20118;-71
2023/04/16 08:17:45;;;;;;;9.85;6.28;;;;;;;;;;5128569;27;20034;-70
2023/04/16 08:20:10;;;;;;;8.02;5.38;;;;;;;;;;5129140;27;20526;-75
2023/04/16 08:22:35;;;;;;;9.68;6.35;;;;;;;;;;5129490;27;20023;-74
2023/04/16 08:25:02;;;;;;;8.75;5.32;;;;;;;;;;5128458;27;20075;-70
2023/04/16 08:27:28;;;;;;;7.82;5.28;;;;;;;;;;5129585;27;20437;-65
2023/04/16 08:29:53;;;;;;;6.20;4.60;;;;;;;;;;5129001;27;20026;-72
2023/04/16 08:32:19;;;;;;;9.35;5.40;;;;;;;;;;5128575;27;20043;-71
2023/04/16 08:34:44;;;;;;;8.43;5.20;;;;;;;;;;5128842;27;20038;-70
2023/04/16 08:37:10;;;;;;;7.35;5.15;;;;;;;;;;5128048;27;20034;-69
2023/04/16 08:39:36;;;;;;;9.00;5.25;;;;;;;;;;5129791;27;20018;-71
2023/04/16 08:42:04;;;;;;;11.80;5.53;;;;;;;;;;5132625;27;20031;-70
2023/04/16 08:44:36;;;;;;;9.25;5.38;;;;;;;;;;5133435;27;20035;-72
2023/04/16 08:47:02;;;;;;;10.13;5.57;;;;;;;;;;5132845;27;20095;-69
2023/04/16 08:49:28;;;;;;;5.88;4.60;;;;;;;;;;5131652;27;20031;-67
2023/04/16 08:51:55;;;;;;;7.90;5.05;;;;;;;;;;5132869;27;20072;-72
2023/04/16 08:54:37;;;;;;;9.95;6.03;;;;;;;;;;5132890;27;20446;-63
2023/04/16 08:57:05;;;;;;;9.25;5.82;;;;;;;;;;5140661;27;20041;-72
2023/04/16 08:59:31;;;;;;;10.40;5.43;;;;;;;;;;5153690;27;20515;-64
2023/04/16 09:01:59;;;;;;;9.23;6.05;;;;;;;;;;5153340;27;20102;-71
2023/04/16 09:04:27;;;;;;;10.00;6.97;;;;;;;;;;5153978;27;20463;-63
2023/04/16 09:06:54;;;;;;;12.20;5.75;;;;;;;;;;5153597;27;20023;-64
2023/04/16 09:09:21;;;;;;;12.02;6.15;;;;;;;;;;5153027;27;20102;-69
2023/04/16 09:11:50;;;;;;;9.95;6.05;;;;;;;;;;5153055;27;20035;-66
2023/04/16 09:14:16;;;;;;;8.63;5.60;;;;;;;;;;5153263;27;20023;-73
2023/04/16 09:16:44;;;;;;;8.27;5.40;;;;;;;;;;5153115;27;20023;-72
2023/04/16 09:19:09;;;;;;;12.57;8.55;;;;;;;;;;5144838;27;20034;-68
2023/04/16 09:21:35;;;;;;;10.00;6.82;;;;;;;;;;5132935;27;20031;-72
2023/04/16 09:24:01;;;;;;;9.20;6.40;;;;;;;;;;5143801;27;20030;-67
2023/04/16 09:26:26;;;;;;;9.02;6.07;;;;;;;;;;5153666;27;20464;-64
2023/04/16 09:28:52;;;;;;;9.15;5.70;;;;;;;;;;5152871;27;20034;-68
2023/04/16 09:31:18;;;;;;;8.13;6.40;;;;;;;;;;5151176;27;20055;-70
2023/04/16 09:34:05;;;;;;;9.10;5.18;;;;;;;;;;5132154;27;20027;-66
2023/04/16 09:36:32;;;;;;;7.40;5.68;;;;;;;;;;5134483;27;20031;-68
2023/04/16 09:38:58;;;;;;;11.23;6.80;;;;;;;;;;5131824;27;20065;-71
2023/04/16 09:41:38;;;;;;;7.00;5.10;;;;;;;;;;5132151;27;20031;-69
2023/04/16 09:44:04;;;;;;;6.72;5.15;;;;;;;;;;5131081;27;20092;-62
2023/04/16 09:46:32;;;;;;;10.45;6.07;;;;;;;;;;5129664;27;20085;-72
2023/04/16 09:49:14;;;;;;;12.20;6.97;;;;;;;;;;5130765;27;20035;-63
2023/04/16 09:51:44;;;;;;;8.98;6.28;;;;;;;;;;5131256;27;20167;-64
2023/04/16 09:54:09;;;;;;;9.30;5.50;;;;;;;;;;5132006;27;20027;-65
2023/04/16 09:56:43;;;;;;;7.85;5.68;;;;;;;;;;5132027;27;20023;-68
2023/04/16 09:59:19;;;;;;;7.55;5.20;;;;;;;;;;5129969;27;20019;-62
2023/04/16 10:01:45;;;;;;;9.35;5.80;;;;;;;;;;5131549;27;20023;-62
2023/04/16 10:04:11;;;;;;;9.88;6.30;;;;;;;;;;5131485;27;20031;-63
2023/04/16 10:06:36;;;;;;;10.38;6.35;;;;;;;;;;5142104;27;20034;-64
2023/04/16 10:09:07;;;;;;;11.48;6.88;;;;;;;;;;5151964;27;20030;-66
2023/04/16 10:11:32;;;;;;;8.90;5.68;;;;;;;;;;5132924;27;20459;-70
2023/04/16 10:13:58;;;;;;;7.40;5.43;;;;;;;;;;5132846;27;20113;-63
2023/04/16 10:16:24;;;;;;;10.68;6.28;;;;;;;;;;5134305;27;20165;-74
2023/04/16 10:18:49;;;;;;;9.13;5.88;;;;;;;;;;5148495;27;20023;-63
2023/04/16 10:21:15;;;;;;;8.63;5.68;;;;;;;;;;5137819;27;20010;-70
2023/04/16 10:23:42;;;;;;;8.98;6.30;;;;;;;;;;5140575;27;20488;-64
2023/04/16 10:26:08;;;;;;;13.55;7.35;;;;;;;;;;5146187;27;20023;-70
2023/04/16 10:28:34;;;;;;;27.92;10.52;;;;;;;;;;5130114;27;20374;-72
2023/04/16 10:31:02;;;;;;;15.32;7.75;;;;;;;;;;5136579;27;20048;-72
2023/04/16 10:33:30;;;;;;;17.17;8.50;;;;;;;;;;5133623;27;20031;-64
2023/04/16 10:36:12;;;;;;;15.18;8.02;;;;;;;;;;5133305;27;20023;-70
2023/04/16 10:38:46;;;;;;;10.02;5.82;;;;;;;;;;5130827;27;20027;-67
2023/04/16 10:41:11;;;;;;;8.02;5.20;;;;;;;;;;5131055;27;20072;-64
2023/04/16 10:43:50;;;;;;;6.70;4.53;;;;;;;;;;5131495;27;20031;-72
2023/04/16 10:46:30;;;;;;;8.23;5.15;;;;;;;;;;5142071;27;20030;-63
2023/04/16 10:48:59;;;;;;;9.50;5.47;;;;;;;;;;5150924;27;20070;-63
2023/04/16 10:51:35;;;;;;;7.13;5.72;;;;;;;;;;5151522;27;20027;-62
2023/04/16 10:54:13;;;;;;;8.13;5.18;;;;;;;;;;5151074;27;20031;-72
2023/04/16 10:56:39;;;;;;;7.35;5.03;;;;;;;;;;5129047;27;20482;-65
2023/04/16 10:59:09;;;;;;;8.40;4.63;;;;;;;;;;5130940;27;20446;-74
2023/04/16 11:01:45;;;;;;;7.00;5.05;;;;;;;;;;5130900;27;20034;-70
2023/04/16 11:04:20;;;;;;;9.32;7.07;;;;;;;;;;5128545;27;20023;-73
2023/04/16 11:07:05;;;;;;;9.30;5.80;;;;;;;;;;5130443;27;20027;-72
2023/04/16 11:09:49;;;;;;;8.35;4.88;;;;;;;;;;5142209;27;20118;-72
2023/04/16 11:12:26;;;;;;;5.60;4.18;;;;;;;;;;5151111;27;20433;-73
2023/04/16 11:15:08;;;;;;;7.88;5.35;;;;;;;;;;5151052;27;20023;-64
2023/04/16 11:17:44;;;;;;;8.90;4.97;;;;;;;;;;5151229;27;20031;-66
2023/04/16 11:20:17;;;;;;;8.60;5.88;;;;;;;;;;5150691;27;20412;-63
2023/04/16 11:22:44;;;;;;;13.13;8.77;;;;;;;;;;5140180;27;20030;-71
2023/04/16 11:25:10;;;;;;;9.27;6.43;;;;;;;;;;5130020;27;20027;-65
2023/04/16 11:27:35;;;;;;;9.73;6.72;;;;;;;;;;5130594;27;20023;-63
2023/04/16 11:30:07;;;;;;;7.50;5.05;;;;;;;;;;5129882;27;20034;-63
2023/04/16 11:32:33;;;;;;;7.05;4.90;;;;;;;;;;5127467;27;20047;-67
2023/04/16 11:35:03;;;;;;;8.30;4.60;;;;;;;;;;5139854;27;20035;-74
2023/04/16 11:37:35;;;;;;;9.88;5.65;;;;;;;;;;5129859;27;20042;-67
2023/04/16 11:40:06;;;;;;;7.88;5.18;;;;;;;;;;5141613;27;20069;-66
2023/04/16 11:42:32;;;;;;;;;;;;;;;;;;5149702;27;20028;-64
2023/04/16 11:45:01;;;;;;;6.07;4.43;;;;;;;;;;5149977;27;19925;-69
2023/04/16 11:47:28;;;;;;;6.63;4.67;;;;;;;;;;5149957;27;20053;-70
2023/04/16 11:49:54;;;;;;;7.65;4.63;;;;;;;;;;5150309;27;20339;-64
2023/04/16 11:52:26;;;;;;;6.93;4.78;;;;;;;;;;5149550;27;20483;-65
2023/04/16 11:54:52;;;;;;;5.75;4.63;;;;;;;;;;5131328;27;20027;-66
2023/04/16 11:57:28;;;;;;;6.97;4.55;;;;;;;;;;5138645;27;20030;-63
2023/04/16 11:59:55;;;;;;;12.95;5.53;;;;;;;;;;5137062;27;20027;-67
2023/04/16 12:02:37;;;;;;;8.77;4.85;;;;;;;;;;5141291;27;20042;-66
2023/04/16 12:05:25;;;;;;;7.13;4.80;;;;;;;;;;5127171;27;20026;-69
2023/04/16 12:07:51;;;;;;;17.08;13.15;;;;;;;;;;5132095;27;20070;-65
2023/04/16 12:10:16;;;;;;;7.13;5.30;;;;;;;;;;5149591;27;20113;-69
2023/04/16 12:12:42;;;;;;;5.57;4.05;;;;;;;;;;5149210;27;20107;-72
2023/04/16 12:15:07;;;;;;;7.75;5.72;;;;;;;;;;5149586;27;20410;-63
2023/04/16 12:17:34;;;;;;;6.65;4.97;;;;;;;;;;5150738;27;20034;-66
2023/04/16 12:20:11;;;;;;;5.47;4.05;;;;;;;;;;5148951;27;20031;-65
2023/04/16 12:22:48;;;;;;;6.85;4.78;;;;;;;;;;5151159;27;20066;-64
2023/04/16 12:25:16;;;;;;;5.45;4.15;;;;;;;;;;5149244;27;20035;-63
2023/04/16 12:27:54;;;;;;;9.73;4.95;;;;;;;;;;5148646;27;20035;-64
2023/04/16 12:30:25;;;;;;;6.43;4.65;;;;;;;;;;5149511;27;20027;-65
2023/04/16 12:32:52;;;;;;;8.73;5.03;;;;;;;;;;5134365;27;20081;-69
2023/04/16 12:35:33;;;;;;;7.35;4.40;;;;;;;;;;5134067;27;20076;-67
2023/04/16 12:38:00;;;;;;;7.03;4.35;;;;;;;;;;5128266;27;20027;-69
2023/04/16 12:40:26;;;;;;;6.45;4.45;;;;;;;;;;5128911;27;20075;-71
2023/04/16 12:42:51;;;;;;;6.20;4.43;;;;;;;;;;5128653;27;20385;-66
2023/04/16 12:45:17;;;;;;;7.90;5.25;;;;;;;;;;5143905;27;20027;-64
2023/04/16 12:47:42;;;;;;;9.13;6.28;;;;;;;;;;5149390;27;20064;-65
2023/04/16 12:50:08;;;;;;;14.90;8.23;;;;;;;;;;5150266;27;20025;-71
2023/04/16 12:52:34;;;;;;;18.02;9.95;;;;;;;;;;5149872;27;20357;-75
2023/04/16 12:55:03;;;;;;;15.32;10.05;;;;;;;;;;5149762;27;20043;-72
2023/04/16 12:57:29;;;;;;;22.30;11.77;;;;;;;;;;5150687;27;20481;-66
2023/04/16 12:59:55;;;;;;;18.67;11.40;;;;;;;;;;5148866;27;20033;-73
2023/04/16 13:02:21;;;;;;;15.70;9.80;;;;;;;;;;5143961;27;20045;-72
2023/04/16 13:04:47;;;;;;;12.27;9.20;;;;;;;;;;5140313;27;20400;-72
2023/04/16 13:07:12;;;;;;;10.70;7.00;;;;;;;;;;5129374;27;20031;-69
2023/04/16 13:09:38;;;;;;;9.65;7.10;;;;;;;;;;5129750;27;20027;-65
2023/04/16 13:12:04;;;;;;;9.05;6.93;;;;;;;;;;5127332;27;20031;-73
2023/04/16 13:14:29;;;;;;;11.95;7.75;;;;;;;;;;5129117;27;20092;-72
2023/04/16 13:16:54;;;;;;;12.73;8.70;;;;;;;;;;5130160;27;20020;-73
2023/04/16 13:19:20;;;;;;;17.00;10.40;;;;;;;;;;5129377;27;20035;-67
2023/04/16 13:21:45;;;;;;;13.98;10.10;;;;;;;;;;5129872;27;20031;-73
2023/04/16 13:24:11;;;;;;;17.70;10.23;;;;;;;;;;5129369;27;20023;-63
2023/04/16 13:26:36;;;;;;;18.83;11.68;;;;;;;;;;5132378;27;20015;-72
2023/04/16 13:29:02;;;;;;;19.25;11.50;;;;;;;;;;5132325;27;20098;-64
2023/04/16 13:31:28;;;;;;;20.02;12.25;;;;;;;;;;5128601;27;20060;-68
2023/04/16 13:33:53;;;;;;;30.13;16.70;;;;;;;;;;5132076;27;20023;-71
2023/04/16 13:36:18;;;;;;;21.27;14.07;;;;;;;;;;5132298;27;20034;-73
2023/04/16 13:38:44;;;;;;;23.42;15.13;;;;;;;;;;5132057;27;20102;-64
2023/04/16 13:41:10;;;;;;;16.45;12.05;;;;;;;;;;5132461;27;20030;-70
2023/04/16 13:43:36;;;;;;;17.50;10.88;;;;;;;;;;5136048;27;20027;-74
2023/04/16 13:46:01;;;;;;;14.23;10.52;;;;;;;;;;5152443;27;20109;-71
2023/04/16 13:48:28;;;;;;;13.60;8.90;;;;;;;;;;5142328;27;20114;-69
2023/04/16 13:50:53;;;;;;;15.65;11.40;;;;;;;;;;5153243;27;20143;-72
2023/04/16 13:53:19;;;;;;;12.48;9.50;;;;;;;;;;5135888;27;20482;-70
2023/04/16 13:55:44;;;;;;;15.73;11.38;;;;;;;;;;5141289;27;20610;-71
2023/04/16 13:58:10;;;;;;;13.88;10.20;;;;;;;;;;5139244;27;20386;-69
2023/04/16 14:00:36;;;;;;;17.17;11.45;;;;;;;;;;5148617;27;20480;-72
2023/04/16 14:03:02;;;;;;;16.70;11.38;;;;;;;;;;5134827;27;20022;-72
2023/04/16 14:05:27;;;;;;;15.85;12.05;;;;;;;;;;5145559;27;20565;-73
2023/04/16 14:07:52;;;;;;;16.52;11.65;;;;;;;;;;5141660;27;20589;-72
2023/04/16 14:10:18;;;;;;;18.70;11.63;;;;;;;;;;5138136;27;20019;-64
2023/04/16 14:12:44;;;;;;;24.05;13.60;;;;;;;;;;5132123;27;20025;-64
2023/04/16 14:15:10;;;;;;;24.73;14.88;;;;;;;;;;5133107;27;20100;-69
2023/04/16 14:17:36;;;;;;;25.67;15.35;;;;;;;;;;5132317;27;20031;-73
2023/04/16 14:20:03;;;;;;;21.27;15.57;;;;;;;;;;5131439;27;20034;-73
2023/04/16 14:22:28;;;;;;;20.58;15.15;;;;;;;;;;5146745;27;20026;-74
2023/04/16 14:24:54;;;;;;;24.52;15.98;;;;;;;;;;5134709;27;20084;-72
2023/04/16 14:27:19;;;;;;;23.27;15.20;;;;;;;;;;5145743;27;20031;-68
2023/04/16 14:29:45;;;;;;;20.98;14.48;;;;;;;;;;5140699;27;20350;-72
2023/04/16 14:32:11;;;;;;;20.13;13.60;;;;;;;;;;5136874;27;20043;-69
2023/04/16 14:34:36;;;;;;;22.85;15.13;;;;;;;;;;5148512;27;20431;-69